createdAt,value
2022-11-19T00:00:48.148Z,-18.22
2022-11-19T00:05:50.967Z,-18.46
2022-11-19T00:10:53.560Z,-18.59
2022-11-19T00:15:56.007Z,-18.74
2022-11-19T00:21:13.909Z,-18.76
2022-11-19T00:26:16.699Z,-18.72
2022-11-19T00:31:19.588Z,-18.39
2022-11-19T00:36:22.250Z,-18.06
2022-11-19T00:41:24.845Z,-17.87
2022-11-19T00:46:30.232Z,-17.76
2022-11-19T00:51:33.218Z,-17.82
2022-11-19T00:56:35.942Z,-17.52
2022-11-19T01:01:38.712Z,-17.29
2022-11-19T01:06:41.604Z,-17.14
2022-11-19T01:11:44.660Z,-17.09
2022-11-19T01:16:47.597Z,-17.07
2022-11-19T01:21:50.335Z,-17.11
2022-11-19T01:26:53.000Z,-17.08
2022-11-19T01:31:55.907Z,-17.01
2022-11-19T01:36:58.629Z,-16.86
2022-11-19T01:42:01.323Z,-17.03
2022-11-19T01:47:04.066Z,-16.84
2022-11-19T01:52:06.927Z,-16.66
2022-11-19T01:57:10.864Z,-16.70
2022-11-19T02:02:13.866Z,-16.64
2022-11-19T02:07:17.595Z,-16.60
2022-11-19T02:12:45.735Z,-16.49
2022-11-19T02:18:36.703Z,-16.38
2022-11-19T02:24:07.170Z,-16.10
2022-11-19T02:29:21.404Z,-15.97
2022-11-19T02:34:30.144Z,-15.85
2022-11-19T02:39:35.497Z,-15.74
2022-11-19T02:45:02.610Z,-15.78
2022-11-19T02:50:10.319Z,-15.60
2022-11-19T02:55:19.352Z,-15.43
2022-11-19T03:00:40.722Z,-15.33
2022-11-19T03:05:46.831Z,-15.26
2022-11-19T03:10:58.957Z,-15.13
2022-11-19T03:16:22.588Z,-15.05
2022-11-19T03:21:35.083Z,-14.92
2022-11-19T03:26:46.274Z,-14.78
2022-11-19T03:31:51.802Z,-14.73
2022-11-19T03:36:57.018Z,-14.56
2022-11-19T03:41:59.809Z,-14.38
2022-11-19T03:47:23.929Z,-14.31
2022-11-19T03:52:26.742Z,-14.20
2022-11-19T03:57:29.522Z,-14.35
2022-11-19T04:02:32.347Z,-14.12
2022-11-19T04:07:35.080Z,-14.03
2022-11-19T04:12:37.757Z,-14.17
2022-11-19T04:17:40.479Z,-14.49
2022-11-19T04:22:43.107Z,-14.87
2022-11-19T04:27:46.949Z,-15.10
2022-11-19T04:32:49.844Z,-15.17
2022-11-19T04:37:52.509Z,-15.12
2022-11-19T04:42:55.344Z,-14.90
2022-11-19T04:47:58.006Z,-14.66
2022-11-19T04:53:01.183Z,-14.34
2022-11-19T04:58:04.075Z,-14.40
2022-11-19T05:03:07.135Z,-14.41
2022-11-19T05:08:09.883Z,-14.59
2022-11-19T05:13:12.931Z,-14.77
2022-11-19T05:18:15.527Z,-14.91
2022-11-19T05:23:18.292Z,-14.93
2022-11-19T05:28:32.699Z,-15.01
2022-11-19T05:33:40.938Z,-15.01
2022-11-19T05:38:43.836Z,-15.05
2022-11-19T05:43:46.504Z,-15.01
2022-11-19T05:48:49.179Z,-14.93
2022-11-19T05:53:52.017Z,-14.91
2022-11-19T05:58:54.792Z,-14.68
2022-11-19T06:03:57.667Z,-14.53
2022-11-19T06:09:00.273Z,-14.34
2022-11-19T06:14:03.396Z,-14.03
2022-11-19T06:19:06.360Z,-13.90
2022-11-19T06:24:09.078Z,-13.95
2022-11-19T06:29:14.044Z,-14.00
2022-11-19T06:34:16.736Z,-13.91
2022-11-19T06:39:20.154Z,-13.82
2022-11-19T06:44:22.830Z,-13.81
2022-11-19T06:49:26.032Z,-13.93
2022-11-19T06:54:28.839Z,-13.83
2022-11-19T06:59:31.863Z,-13.82
2022-11-19T07:04:34.590Z,-13.88
2022-11-19T07:09:37.432Z,-13.83
2022-11-19T07:14:40.093Z,-14.01
2022-11-19T07:19:42.815Z,-14.07
2022-11-19T07:24:45.484Z,-14.02
2022-11-19T07:29:48.163Z,-14.08
2022-11-19T07:34:50.869Z,-14.23
2022-11-19T07:39:53.541Z,-14.17
2022-11-19T07:44:56.389Z,-14.10
2022-11-19T07:49:59.181Z,-14.13
2022-11-19T07:55:01.977Z,-14.21
2022-11-19T08:00:07.105Z,-14.30
2022-11-19T08:05:16.122Z,-14.79
2022-11-19T08:10:19.345Z,-14.58
2022-11-19T08:15:21.984Z,-14.63
2022-11-19T08:20:24.801Z,-14.51
2022-11-19T08:25:27.701Z,-14.37
2022-11-19T08:30:31.375Z,-14.18
2022-11-19T08:35:34.133Z,-13.82
2022-11-19T08:40:37.094Z,-13.58
2022-11-19T08:45:40.236Z,-13.57
2022-11-19T08:50:42.985Z,-13.45
2022-11-19T08:55:51.318Z,-13.42
2022-11-19T09:00:55.298Z,-13.55
2022-11-19T09:06:01.374Z,-13.73
2022-11-19T09:11:15.896Z,-13.96
2022-11-19T09:16:18.861Z,-14.12
2022-11-19T09:21:21.751Z,-14.11
2022-11-19T09:26:24.468Z,-14.04
2022-11-19T09:31:27.114Z,-14.05
2022-11-19T09:36:29.794Z,-14.10
2022-11-19T09:41:44.695Z,-14.21
2022-11-19T09:46:57.033Z,-14.31
2022-11-19T09:52:06.144Z,-14.50
2022-11-19T09:57:12.486Z,-14.51
2022-11-19T10:02:20.635Z,-14.78
2022-11-19T10:07:29.258Z,-14.53
2022-11-19T10:12:43.896Z,-14.62
2022-11-19T10:17:49.558Z,-14.82
2022-11-19T10:22:57.948Z,-14.94
2022-11-19T10:28:15.320Z,-15.12
2022-11-19T10:33:41.211Z,-15.23
2022-11-19T10:38:58.040Z,-15.45
2022-11-19T10:44:40.694Z,-15.49
2022-11-19T10:49:44.090Z,-15.63
2022-11-19T10:54:46.976Z,-15.57
2022-11-19T10:59:51.149Z,-15.54
2022-11-19T11:05:17.335Z,-15.60
2022-11-19T11:10:28.987Z,-15.64
2022-11-19T11:15:32.386Z,-15.71
2022-11-19T11:20:36.698Z,-15.83
2022-11-19T11:25:41.072Z,-15.75
2022-11-19T11:31:05.086Z,-15.66
2022-11-19T11:36:09.305Z,-15.65
2022-11-19T11:42:04.063Z,-15.58
2022-11-19T11:46:56.584Z,-15.50
2022-11-19T11:52:17.630Z,-15.37
2022-11-19T11:57:22.597Z,-15.20
2022-11-19T12:02:31.371Z,-15.02
2022-11-19T12:07:55.444Z,-14.81
2022-11-19T12:12:58.098Z,-14.63
2022-11-19T12:18:10.342Z,-14.52
2022-11-19T12:23:16.056Z,-14.42
2022-11-19T12:28:37.482Z,-14.42
2022-11-19T12:33:49.269Z,-14.25
2022-11-19T12:39:26.925Z,-14.22
2022-11-19T12:44:32.550Z,-14.15
2022-11-19T12:49:40.752Z,-14.04
2022-11-19T12:54:52.164Z,-13.91
2022-11-19T13:00:12.280Z,-13.75
2022-11-19T13:05:19.996Z,-13.56
2022-11-19T13:10:28.725Z,-13.48
2022-11-19T13:15:38.690Z,-13.26
2022-11-19T13:20:54.551Z,-13.27
2022-11-19T13:26:03.879Z,-13.36
2022-11-19T13:31:13.664Z,-13.06
2022-11-19T13:36:40.778Z,-13.02
2022-11-19T13:42:07.451Z,-12.93
2022-11-19T13:47:26.199Z,-12.88
2022-11-19T13:52:40.114Z,-12.87
2022-11-19T13:57:44.555Z,-12.81
2022-11-19T14:03:05.744Z,-12.69
2022-11-19T14:08:23.333Z,-12.64
2022-11-19T14:13:50.885Z,-12.56
2022-11-19T14:19:13.675Z,-12.51
2022-11-19T14:24:44.068Z,-12.45
2022-11-19T14:29:46.602Z,-12.34
2022-11-19T14:35:01.653Z,-12.28
2022-11-19T14:40:10.445Z,-12.24
2022-11-19T14:45:13.060Z,-12.27
2022-11-19T14:50:29.285Z,-12.20
2022-11-19T14:55:34.507Z,-12.27
2022-11-19T15:00:42.214Z,-12.27
2022-11-19T15:05:46.529Z,-12.18
2022-11-19T15:11:09.860Z,-12.12
2022-11-19T15:16:27.722Z,-12.10
2022-11-19T15:21:58.067Z,-12.15
2022-11-19T15:27:18.725Z,-12.14
2022-11-19T15:32:39.717Z,-12.09
2022-11-19T15:37:52.080Z,-12.04
2022-11-19T15:43:07.260Z,-12.04
2022-11-19T15:48:45.790Z,-12.01
2022-11-19T15:54:11.445Z,-12.18
2022-11-19T15:59:15.348Z,-11.97
2022-11-19T16:04:18.122Z,-11.94
2022-11-19T16:09:23.932Z,-12.33
2022-11-19T16:14:47.900Z,-11.93
2022-11-19T16:20:06.934Z,-11.92
2022-11-19T16:25:15.327Z,-11.94
2022-11-19T16:30:24.310Z,-11.90
2022-11-19T16:35:32.049Z,-11.83
2022-11-19T16:40:55.183Z,-11.83
2022-11-19T16:45:58.313Z,-11.77
2022-11-19T16:51:35.611Z,-11.71
2022-11-19T16:56:48.121Z,-11.73
2022-11-19T17:01:59.899Z,-11.67
2022-11-19T17:07:02.933Z,-11.67
2022-11-19T17:12:22.727Z,-11.62
2022-11-19T17:17:29.229Z,-11.59
2022-11-19T17:22:34.867Z,-11.53
2022-11-19T17:27:38.649Z,-11.55
2022-11-19T17:33:02.109Z,-11.43
2022-11-19T17:38:12.255Z,-11.39
2022-11-19T17:43:35.323Z,-11.35
2022-11-19T17:48:41.485Z,-11.34
2022-11-19T17:53:44.515Z,-11.31
2022-11-19T17:58:47.820Z,-11.23
2022-11-19T18:03:50.577Z,-11.24
2022-11-19T18:08:53.388Z,-11.30
2022-11-19T18:13:58.345Z,-11.30
2022-11-19T18:19:01.128Z,-11.23
2022-11-19T18:24:04.065Z,-11.18
2022-11-19T18:29:07.046Z,-11.17
2022-11-19T18:34:15.062Z,-11.26
2022-11-19T18:39:17.878Z,-11.17
2022-11-19T18:44:35.519Z,-11.19
2022-11-19T18:49:38.836Z,-11.22
2022-11-19T18:54:41.596Z,-11.21
2022-11-19T18:59:44.562Z,-11.20
2022-11-19T19:04:51.073Z,-11.16
2022-11-19T19:09:54.011Z,-11.19
2022-11-19T19:14:57.605Z,-11.30
2022-11-19T19:20:00.252Z,-11.27
2022-11-19T19:25:05.451Z,-11.29
2022-11-19T19:30:09.974Z,-11.27
2022-11-19T19:35:12.830Z,-11.29
2022-11-19T19:40:15.704Z,-11.37
2022-11-19T19:45:18.405Z,-11.43
2022-11-19T19:50:21.062Z,-11.46
2022-11-19T19:55:23.702Z,-11.47
2022-11-19T20:00:26.428Z,-11.65
2022-11-19T20:05:29.076Z,-11.56
2022-11-19T20:10:32.745Z,-11.71
2022-11-19T20:15:35.548Z,-11.74
2022-11-19T20:20:38.289Z,-11.76
2022-11-19T20:25:40.956Z,-11.66
2022-11-19T20:30:43.662Z,-11.51
2022-11-19T20:35:52.868Z,-11.50
2022-11-19T20:40:57.934Z,-11.46
2022-11-19T20:46:07.935Z,-11.43
2022-11-19T20:51:11.135Z,-11.42
2022-11-19T20:56:14.809Z,-11.40
2022-11-19T21:01:17.499Z,-11.36
2022-11-19T21:06:20.196Z,-11.50
2022-11-19T21:11:22.895Z,-11.42
2022-11-19T21:16:26.282Z,-11.33
2022-11-19T21:21:29.056Z,-11.41
2022-11-19T21:26:31.856Z,-11.62
2022-11-19T21:31:39.366Z,-11.59
2022-11-19T21:36:43.240Z,-11.55
2022-11-19T21:41:45.949Z,-11.53
2022-11-19T21:46:48.801Z,-11.59
2022-11-19T21:51:51.535Z,-11.60
2022-11-19T21:56:54.192Z,-11.60
2022-11-19T22:01:56.808Z,-11.55
2022-11-19T22:06:59.555Z,-11.52
2022-11-19T22:12:02.244Z,-11.52
2022-11-19T22:17:05.079Z,-11.50
2022-11-19T22:22:07.810Z,-11.53
2022-11-19T22:27:10.524Z,-11.60
2022-11-19T22:32:13.438Z,-11.80
2022-11-19T22:37:16.854Z,-11.74
2022-11-19T22:42:19.576Z,-12.01
2022-11-19T22:47:22.202Z,-12.21
2022-11-19T22:52:25.106Z,-12.39
2022-11-19T22:57:28.314Z,-12.57
2022-11-19T23:02:30.943Z,-12.84
2022-11-19T23:07:33.955Z,-13.06
2022-11-19T23:12:56.993Z,-13.49
2022-11-19T23:17:59.610Z,-13.54
2022-11-19T23:23:02.319Z,-13.75
2022-11-19T23:28:05.236Z,-14.00
2022-11-19T23:33:07.888Z,-14.40
2022-11-19T23:38:10.567Z,-14.84
2022-11-19T23:43:13.281Z,-14.93
2022-11-19T23:48:17.694Z,-15.14
2022-11-19T23:53:20.348Z,-15.29
2022-11-19T23:58:23.423Z,-15.36
